Patuxent River Naval Air Station/Trapnell Field Aiport
KNHK : now visible

Airfield :











YOU CAN JOIN US ON...

 
LOGIN :

Register | Disclaimer

   EN    FR    IT 

 









Legend :    VFR   Marginal VFR   IFR   Intensive IFR   Very Intensive IFR
Visi :
Ceiling :
>= 8 km
>= 3000ft
5 to 8 km
1000 to 3000 ft
1500m to 5 km
500 to 1000 ft
800 to 1500m
200 to 500 ft
< 800m
< 200 ft
Symbols :   Thunderstorms  Fog  Heavy snow  Heavy precipitations  Wind > 20 kt






- Airport Elevation : 39 ft


KNHK - Patuxent River Naval Air Station/Trapnell Field Aiport

CURRENT METAR :
  • 211452Z 12009KT 10SM FEW008 FEW260 21/17 A3005 RMK AO2 SLP175 T02110167 58002 $

EXPIRED METARs :
  • 211352Z 12006KT 10SM FEW260 21/17 A3005 RMK AO2 SLP177 T02110172 $
  • 211306Z 00000KT 10SM SCT006 20/17 A3006 RMK AO2 T02000167 $
  • 211252Z 29003KT 10SM BKN005 19/17 A3006 RMK AO2 SLP180 T01890167 $
  • 211231Z 22003KT 8SM OVC004 18/16 A3006 RMK AO2 T01830161 $
  • 211149Z 00000KT 3SM BR OVC002 18/16 A3005 RMK AO2 VIS 1 1/2 RY24 SLP177 T01780161 10178 20167 53012 $
  • 211136Z VRB03KT 1 1/4SM BR OVC002 18/16 A3005 RMK AO2 T01780161 $
  • 211116Z 00000KT 3/4SM BR VV002 17/16 A3005 RMK AO2 T01720156 $
  • 211052Z 00000KT 1/4SM FG VV002 17/16 A3004 RMK AO2 SLP171 T01720156 $

TAF AMD TAF KNHK
Valid from the 21 at 10:00 until the 22 at 07:00 UTC


2110/2207 VRB04KT 0800 FG VV002 QNH3001INS
TEMPO 2111/2114 3200 BR OVC003
BECMG 2113/2114 14007KT 9999 SKC QNH2996INS TX23/2120Z TN16/2210Z AMD 1037 FN20065
KZDC FIR / North America



MET'MAP, your aeronautical weather chart ! - Copyright ORBIFLY December 2007 - Disclaimer

ORBIFLY MET'MAP TEAM :

Programming & Development : Alexandra Zaïnal
Original concept : Baudouin d'Aumeries
Technical & hardware support : Manuel Goepfert
Assistance : Marc-Olivier Méhu




SOURCES & CREDITS :

   NOAA       Earth
Advisory